sensor_id;sensor_type;location;lat;lon;timestamp;temperature;humidity
34644;DHT22;26931;43.498;-1.506;2023-01-25T00:00:37;5.90;91.50
34644;DHT22;26931;43.498;-1.506;2023-01-25T00:03:03;5.90;91.50
34644;DHT22;26931;43.498;-1.506;2023-01-25T00:05:29;5.90;91.40
34644;DHT22;26931;43.498;-1.506;2023-01-25T00:07:55;5.80;91.40
34644;DHT22;26931;43.498;-1.506;2023-01-25T00:10:20;5.80;91.30
34644;DHT22;26931;43.498;-1.506;2023-01-25T00:12:46;5.70;91.30
34644;DHT22;26931;43.498;-1.506;2023-01-25T00:15:12;5.60;91.30
34644;DHT22;26931;43.498;-1.506;2023-01-25T00:17:38;5.70;91.30
34644;DHT22;26931;43.498;-1.506;2023-01-25T00:20:04;5.70;91.30
34644;DHT22;26931;43.498;-1.506;2023-01-25T00:22:29;5.80;91.30
34644;DHT22;26931;43.498;-1.506;2023-01-25T00:24:55;5.80;91.40
34644;DHT22;26931;43.498;-1.506;2023-01-25T00:27:21;5.80;91.50
34644;DHT22;26931;43.498;-1.506;2023-01-25T00:29:47;5.80;91.50
34644;DHT22;26931;43.498;-1.506;2023-01-25T00:34:42;5.90;91.60
34644;DHT22;26931;43.498;-1.506;2023-01-25T00:39:52;5.90;91.50
34644;DHT22;26931;43.498;-1.506;2023-01-25T00:42:18;5.90;91.50
34644;DHT22;26931;43.498;-1.506;2023-01-25T00:44:44;5.80;91.50
34644;DHT22;26931;43.498;-1.506;2023-01-25T00:47:10;5.90;91.50
34644;DHT22;26931;43.498;-1.506;2023-01-25T00:49:37;6.00;91.50
34644;DHT22;26931;43.498;-1.506;2023-01-25T00:52:03;5.90;91.50
34644;DHT22;26931;43.498;-1.506;2023-01-25T00:54:29;5.90;91.50
34644;DHT22;26931;43.498;-1.506;2023-01-25T00:56:54;5.90;91.40
34644;DHT22;26931;43.498;-1.506;2023-01-25T00:59:21;5.90;91.40
34644;DHT22;26931;43.498;-1.506;2023-01-25T01:01:47;5.90;91.40
34644;DHT22;26931;43.498;-1.506;2023-01-25T01:04:13;5.90;91.40
34644;DHT22;26931;43.498;-1.506;2023-01-25T01:06:40;5.80;91.40
34644;DHT22;26931;43.498;-1.506;2023-01-25T01:09:06;5.90;91.30
34644;DHT22;26931;43.498;-1.506;2023-01-25T01:11:32;5.90;91.30
34644;DHT22;26931;43.498;-1.506;2023-01-25T01:13:58;5.90;91.30
34644;DHT22;26931;43.498;-1.506;2023-01-25T01:16:24;5.90;91.20
34644;DHT22;26931;43.498;-1.506;2023-01-25T01:18:50;5.90;91.20
34644;DHT22;26931;43.498;-1.506;2023-01-25T01:21:16;5.80;91.20
34644;DHT22;26931;43.498;-1.506;2023-01-25T01:23:41;5.90;91.20
34644;DHT22;26931;43.498;-1.506;2023-01-25T01:26:08;5.80;91.10
34644;DHT22;26931;43.498;-1.506;2023-01-25T01:28:34;5.90;91.20
34644;DHT22;26931;43.498;-1.506;2023-01-25T01:31:12;5.80;91.10
34644;DHT22;26931;43.498;-1.506;2023-01-25T01:33:38;6.00;91.10
34644;DHT22;26931;43.498;-1.506;2023-01-25T01:36:07;6.00;91.10
34644;DHT22;26931;43.498;-1.506;2023-01-25T01:38:33;6.00;91.10
34644;DHT22;26931;43.498;-1.506;2023-01-25T01:40:59;6.00;91.00
34644;DHT22;26931;43.498;-1.506;2023-01-25T01:43:25;6.00;90.90
34644;DHT22;26931;43.498;-1.506;2023-01-25T01:45:52;6.20;91.00
34644;DHT22;26931;43.498;-1.506;2023-01-25T01:48:37;6.00;90.90
34644;DHT22;26931;43.498;-1.506;2023-01-25T01:53:35;6.00;90.90
34644;DHT22;26931;43.498;-1.506;2023-01-25T01:56:03;5.90;90.80
34644;DHT22;26931;43.498;-1.506;2023-01-25T01:58:31;5.90;90.90
34644;DHT22;26931;43.498;-1.506;2023-01-25T02:00:57;5.90;90.90
34644;DHT22;26931;43.498;-1.506;2023-01-25T02:03:23;5.90;90.80
34644;DHT22;26931;43.498;-1.506;2023-01-25T02:08:14;5.90;90.80
34644;DHT22;26931;43.498;-1.506;2023-01-25T02:10:40;5.90;90.80
34644;DHT22;26931;43.498;-1.506;2023-01-25T02:13:06;5.90;90.80
34644;DHT22;26931;43.498;-1.506;2023-01-25T02:15:33;6.00;90.70
34644;DHT22;26931;43.498;-1.506;2023-01-25T02:18:01;5.90;90.80
34644;DHT22;26931;43.498;-1.506;2023-01-25T02:20:28;5.80;90.70
34644;DHT22;26931;43.498;-1.506;2023-01-25T02:25:31;5.80;90.80
34644;DHT22;26931;43.498;-1.506;2023-01-25T02:28:05;5.80;90.70
34644;DHT22;26931;43.498;-1.506;2023-01-25T02:30:32;5.80;90.80
34644;DHT22;26931;43.498;-1.506;2023-01-25T02:32:58;5.80;90.90
34644;DHT22;26931;43.498;-1.506;2023-01-25T02:35:34;5.70;90.80
34644;DHT22;26931;43.498;-1.506;2023-01-25T02:38:01;5.90;90.90
34644;DHT22;26931;43.498;-1.506;2023-01-25T02:40:27;5.80;91.00
34644;DHT22;26931;43.498;-1.506;2023-01-25T02:42:54;5.80;91.00
34644;DHT22;26931;43.498;-1.506;2023-01-25T02:45:21;5.90;91.10
34644;DHT22;26931;43.498;-1.506;2023-01-25T02:47:50;5.90;91.00
34644;DHT22;26931;43.498;-1.506;2023-01-25T02:50:15;5.90;91.00
34644;DHT22;26931;43.498;-1.506;2023-01-25T02:52:41;5.90;91.10
34644;DHT22;26931;43.498;-1.506;2023-01-25T02:55:07;5.90;91.10
34644;DHT22;26931;43.498;-1.506;2023-01-25T02:57:33;5.90;91.10
34644;DHT22;26931;43.498;-1.506;2023-01-25T02:59:59;5.90;91.10
34644;DHT22;26931;43.498;-1.506;2023-01-25T03:02:24;6.00;91.10
34644;DHT22;26931;43.498;-1.506;2023-01-25T03:04:50;6.00;91.00
34644;DHT22;26931;43.498;-1.506;2023-01-25T03:07:15;5.90;91.00
34644;DHT22;26931;43.498;-1.506;2023-01-25T03:09:41;5.90;91.00
34644;DHT22;26931;43.498;-1.506;2023-01-25T03:12:06;5.90;91.20
34644;DHT22;26931;43.498;-1.506;2023-01-25T03:14:32;6.00;91.10
34644;DHT22;26931;43.498;-1.506;2023-01-25T03:16:58;5.90;90.90
34644;DHT22;26931;43.498;-1.506;2023-01-25T03:19:23;5.80;91.00
34644;DHT22;26931;43.498;-1.506;2023-01-25T03:21:49;5.90;91.00
34644;DHT22;26931;43.498;-1.506;2023-01-25T03:24:14;5.90;91.00
34644;DHT22;26931;43.498;-1.506;2023-01-25T03:26:41;5.90;90.90
34644;DHT22;26931;43.498;-1.506;2023-01-25T03:29:25;6.00;90.90
34644;DHT22;26931;43.498;-1.506;2023-01-25T03:31:51;6.00;90.80
34644;DHT22;26931;43.498;-1.506;2023-01-25T03:34:17;6.00;90.70
34644;DHT22;26931;43.498;-1.506;2023-01-25T03:36:42;6.20;90.80
34644;DHT22;26931;43.498;-1.506;2023-01-25T03:39:08;6.00;90.70
34644;DHT22;26931;43.498;-1.506;2023-01-25T03:41:34;6.00;90.80
34644;DHT22;26931;43.498;-1.506;2023-01-25T03:44:00;6.00;90.70
34644;DHT22;26931;43.498;-1.506;2023-01-25T03:46:25;5.80;90.70
34644;DHT22;26931;43.498;-1.506;2023-01-25T03:48:51;6.00;90.80
34644;DHT22;26931;43.498;-1.506;2023-01-25T03:51:16;6.00;90.80
34644;DHT22;26931;43.498;-1.506;2023-01-25T03:53:42;6.00;90.70
34644;DHT22;26931;43.498;-1.506;2023-01-25T03:56:08;6.00;90.80
34644;DHT22;26931;43.498;-1.506;2023-01-25T03:58:35;5.90;90.80
34644;DHT22;26931;43.498;-1.506;2023-01-25T04:01:03;5.90;91.00
34644;DHT22;26931;43.498;-1.506;2023-01-25T04:03:29;5.90;91.00
34644;DHT22;26931;43.498;-1.506;2023-01-25T04:05:55;5.80;91.00
34644;DHT22;26931;43.498;-1.506;2023-01-25T04:08:21;5.80;91.10
34644;DHT22;26931;43.498;-1.506;2023-01-25T04:10:53;5.70;91.20
34644;DHT22;26931;43.498;-1.506;2023-01-25T04:13:19;5.80;91.30
34644;DHT22;26931;43.498;-1.506;2023-01-25T04:15:45;5.80;91.20
34644;DHT22;26931;43.498;-1.506;2023-01-25T04:18:11;5.70;91.10
34644;DHT22;26931;43.498;-1.506;2023-01-25T04:20:37;5.70;91.30
34644;DHT22;26931;43.498;-1.506;2023-01-25T04:23:03;5.80;91.40
34644;DHT22;26931;43.498;-1.506;2023-01-25T04:25:31;5.80;91.30
34644;DHT22;26931;43.498;-1.506;2023-01-25T04:27:57;5.80;91.30
34644;DHT22;26931;43.498;-1.506;2023-01-25T04:30:23;5.70;91.30
34644;DHT22;26931;43.498;-1.506;2023-01-25T04:32:49;5.80;91.40
34644;DHT22;26931;43.498;-1.506;2023-01-25T04:35:15;5.80;91.40
34644;DHT22;26931;43.498;-1.506;2023-01-25T04:37:41;5.80;91.30
34644;DHT22;26931;43.498;-1.506;2023-01-25T04:40:07;5.70;91.40
34644;DHT22;26931;43.498;-1.506;2023-01-25T04:42:33;5.80;91.50
34644;DHT22;26931;43.498;-1.506;2023-01-25T04:44:59;5.80;91.40
34644;DHT22;26931;43.498;-1.506;2023-01-25T04:47:25;5.80;91.40
34644;DHT22;26931;43.498;-1.506;2023-01-25T04:49:51;5.80;91.40
34644;DHT22;26931;43.498;-1.506;2023-01-25T04:52:17;5.70;91.40
34644;DHT22;26931;43.498;-1.506;2023-01-25T04:54:42;5.70;91.50
34644;DHT22;26931;43.498;-1.506;2023-01-25T04:57:08;5.70;91.50
34644;DHT22;26931;43.498;-1.506;2023-01-25T04:59:34;5.70;91.60
34644;DHT22;26931;43.498;-1.506;2023-01-25T05:02:00;5.70;91.60
34644;DHT22;26931;43.498;-1.506;2023-01-25T05:04:25;5.80;91.60
34644;DHT22;26931;43.498;-1.506;2023-01-25T05:06:52;5.70;91.50
34644;DHT22;26931;43.498;-1.506;2023-01-25T05:09:17;5.80;91.60
34644;DHT22;26931;43.498;-1.506;2023-01-25T05:11:43;5.80;91.60
34644;DHT22;26931;43.498;-1.506;2023-01-25T05:14:09;5.80;91.50
34644;DHT22;26931;43.498;-1.506;2023-01-25T05:16:34;5.90;91.30
34644;DHT22;26931;43.498;-1.506;2023-01-25T05:19:00;5.80;91.40
34644;DHT22;26931;43.498;-1.506;2023-01-25T05:21:26;5.90;91.40
34644;DHT22;26931;43.498;-1.506;2023-01-25T05:24:10;5.90;91.30
34644;DHT22;26931;43.498;-1.506;2023-01-25T05:26:35;5.90;91.30
34644;DHT22;26931;43.498;-1.506;2023-01-25T05:29:20;5.90;91.20
34644;DHT22;26931;43.498;-1.506;2023-01-25T05:31:45;6.00;91.20
34644;DHT22;26931;43.498;-1.506;2023-01-25T05:34:11;6.00;91.00
34644;DHT22;26931;43.498;-1.506;2023-01-25T05:36:36;6.00;91.00
34644;DHT22;26931;43.498;-1.506;2023-01-25T05:39:04;6.00;90.90
34644;DHT22;26931;43.498;-1.506;2023-01-25T05:41:31;6.00;90.80
34644;DHT22;26931;43.498;-1.506;2023-01-25T05:43:56;6.00;90.60
34644;DHT22;26931;43.498;-1.506;2023-01-25T05:46:22;6.00;90.50
34644;DHT22;26931;43.498;-1.506;2023-01-25T05:48:48;6.10;90.40
34644;DHT22;26931;43.498;-1.506;2023-01-25T05:51:14;6.10;90.30
34644;DHT22;26931;43.498;-1.506;2023-01-25T05:53:39;6.10;90.30
34644;DHT22;26931;43.498;-1.506;2023-01-25T05:56:05;6.10;90.10
34644;DHT22;26931;43.498;-1.506;2023-01-25T05:58:31;6.10;90.10
34644;DHT22;26931;43.498;-1.506;2023-01-25T06:01:01;6.10;90.00
34644;DHT22;26931;43.498;-1.506;2023-01-25T06:03:27;6.20;90.00
34644;DHT22;26931;43.498;-1.506;2023-01-25T06:05:56;6.20;89.70
34644;DHT22;26931;43.498;-1.506;2023-01-25T06:08:22;6.20;89.80
34644;DHT22;26931;43.498;-1.506;2023-01-25T06:10:48;6.30;89.60
34644;DHT22;26931;43.498;-1.506;2023-01-25T06:13:15;6.30;89.40
34644;DHT22;26931;43.498;-1.506;2023-01-25T06:15:40;6.30;89.20
34644;DHT22;26931;43.498;-1.506;2023-01-25T06:18:06;6.40;89.20
34644;DHT22;26931;43.498;-1.506;2023-01-25T06:20:32;6.40;89.10
34644;DHT22;26931;43.498;-1.506;2023-01-25T06:22:58;6.40;89.10
34644;DHT22;26931;43.498;-1.506;2023-01-25T06:25:23;6.40;89.00
34644;DHT22;26931;43.498;-1.506;2023-01-25T06:27:49;6.50;89.00
34644;DHT22;26931;43.498;-1.506;2023-01-25T06:30:15;6.30;88.80
34644;DHT22;26931;43.498;-1.506;2023-01-25T06:32:41;6.50;88.90
34644;DHT22;26931;43.498;-1.506;2023-01-25T06:35:06;6.50;88.80
34644;DHT22;26931;43.498;-1.506;2023-01-25T06:37:32;6.50;88.80
34644;DHT22;26931;43.498;-1.506;2023-01-25T06:39:58;6.60;88.80
34644;DHT22;26931;43.498;-1.506;2023-01-25T06:42:24;6.50;88.90
34644;DHT22;26931;43.498;-1.506;2023-01-25T06:44:50;6.50;89.00
34644;DHT22;26931;43.498;-1.506;2023-01-25T06:47:15;6.50;89.10
34644;DHT22;26931;43.498;-1.506;2023-01-25T06:49:41;6.40;89.10
34644;DHT22;26931;43.498;-1.506;2023-01-25T06:52:07;6.40;89.40
34644;DHT22;26931;43.498;-1.506;2023-01-25T06:54:33;6.40;89.70
34644;DHT22;26931;43.498;-1.506;2023-01-25T06:56:58;6.40;89.90
34644;DHT22;26931;43.498;-1.506;2023-01-25T06:59:24;6.40;90.00
34644;DHT22;26931;43.498;-1.506;2023-01-25T07:01:50;6.30;90.10
34644;DHT22;26931;43.498;-1.506;2023-01-25T07:04:16;6.30;90.20
34644;DHT22;26931;43.498;-1.506;2023-01-25T07:06:42;6.30;90.30
34644;DHT22;26931;43.498;-1.506;2023-01-25T07:09:08;6.20;90.40
34644;DHT22;26931;43.498;-1.506;2023-01-25T07:11:34;6.10;90.50
34644;DHT22;26931;43.498;-1.506;2023-01-25T07:14:00;6.30;90.50
34644;DHT22;26931;43.498;-1.506;2023-01-25T07:16:26;6.30;90.60
34644;DHT22;26931;43.498;-1.506;2023-01-25T07:18:52;6.20;90.50
34644;DHT22;26931;43.498;-1.506;2023-01-25T07:21:19;6.20;90.60
34644;DHT22;26931;43.498;-1.506;2023-01-25T07:23:45;6.30;90.70
34644;DHT22;26931;43.498;-1.506;2023-01-25T07:26:21;6.10;90.60
34644;DHT22;26931;43.498;-1.506;2023-01-25T07:28:47;6.20;90.70
34644;DHT22;26931;43.498;-1.506;2023-01-25T07:31:14;6.20;90.70
34644;DHT22;26931;43.498;-1.506;2023-01-25T07:33:40;6.20;90.70
34644;DHT22;26931;43.498;-1.506;2023-01-25T07:36:06;6.20;91.00
34644;DHT22;26931;43.498;-1.506;2023-01-25T07:38:33;6.20;90.80
34644;DHT22;26931;43.498;-1.506;2023-01-25T07:40:58;6.20;90.70
34644;DHT22;26931;43.498;-1.506;2023-01-25T07:43:25;6.20;90.80
34644;DHT22;26931;43.498;-1.506;2023-01-25T07:45:51;6.10;90.80
34644;DHT22;26931;43.498;-1.506;2023-01-25T07:48:17;6.20;90.80
34644;DHT22;26931;43.498;-1.506;2023-01-25T07:50:43;6.30;90.80
34644;DHT22;26931;43.498;-1.506;2023-01-25T07:53:17;6.30;90.70
34644;DHT22;26931;43.498;-1.506;2023-01-25T07:55:42;6.20;90.70
34644;DHT22;26931;43.498;-1.506;2023-01-25T07:58:11;6.20;90.70
34644;DHT22;26931;43.498;-1.506;2023-01-25T08:00:37;6.20;90.70
34644;DHT22;26931;43.498;-1.506;2023-01-25T08:03:03;6.40;90.80
34644;DHT22;26931;43.498;-1.506;2023-01-25T08:05:29;6.30;90.80
34644;DHT22;26931;43.498;-1.506;2023-01-25T08:07:54;6.20;90.80
34644;DHT22;26931;43.498;-1.506;2023-01-25T08:10:20;6.30;90.90
34644;DHT22;26931;43.498;-1.506;2023-01-25T08:12:46;6.20;90.90
34644;DHT22;26931;43.498;-1.506;2023-01-25T08:15:12;6.20;90.90
34644;DHT22;26931;43.498;-1.506;2023-01-25T08:17:38;6.30;91.00
34644;DHT22;26931;43.498;-1.506;2023-01-25T08:20:04;6.30;91.00
34644;DHT22;26931;43.498;-1.506;2023-01-25T08:22:30;6.30;91.00
34644;DHT22;26931;43.498;-1.506;2023-01-25T08:24:56;6.40;91.00
34644;DHT22;26931;43.498;-1.506;2023-01-25T08:27:21;6.30;91.00
34644;DHT22;26931;43.498;-1.506;2023-01-25T08:29:47;6.30;91.00
34644;DHT22;26931;43.498;-1.506;2023-01-25T08:32:15;6.30;91.00
34644;DHT22;26931;43.498;-1.506;2023-01-25T08:34:41;6.30;91.10
34644;DHT22;26931;43.498;-1.506;2023-01-25T08:37:07;6.30;91.00
34644;DHT22;26931;43.498;-1.506;2023-01-25T08:39:32;6.50;91.10
34644;DHT22;26931;43.498;-1.506;2023-01-25T08:41:58;6.30;91.00
34644;DHT22;26931;43.498;-1.506;2023-01-25T08:44:24;6.30;91.00
34644;DHT22;26931;43.498;-1.506;2023-01-25T08:46:50;6.20;91.10
34644;DHT22;26931;43.498;-1.506;2023-01-25T08:49:16;6.30;91.10
34644;DHT22;26931;43.498;-1.506;2023-01-25T08:51:42;6.40;91.10
34644;DHT22;26931;43.498;-1.506;2023-01-25T08:54:09;6.40;91.00
34644;DHT22;26931;43.498;-1.506;2023-01-25T08:56:36;6.40;91.00
34644;DHT22;26931;43.498;-1.506;2023-01-25T08:59:01;6.40;91.00
34644;DHT22;26931;43.498;-1.506;2023-01-25T09:01:27;6.40;91.00
34644;DHT22;26931;43.498;-1.506;2023-01-25T09:03:53;6.40;90.90
34644;DHT22;26931;43.498;-1.506;2023-01-25T09:06:19;6.40;90.90
34644;DHT22;26931;43.498;-1.506;2023-01-25T09:08:45;6.40;90.80
34644;DHT22;26931;43.498;-1.506;2023-01-25T09:11:12;6.40;90.80
34644;DHT22;26931;43.498;-1.506;2023-01-25T09:13:38;6.40;90.80
34644;DHT22;26931;43.498;-1.506;2023-01-25T09:16:09;6.40;90.70
34644;DHT22;26931;43.498;-1.506;2023-01-25T09:18:35;6.40;90.70
34644;DHT22;26931;43.498;-1.506;2023-01-25T09:21:07;6.50;90.70
34644;DHT22;26931;43.498;-1.506;2023-01-25T09:23:33;6.30;90.60
34644;DHT22;26931;43.498;-1.506;2023-01-25T09:25:59;6.50;90.60
34644;DHT22;26931;43.498;-1.506;2023-01-25T09:28:25;6.50;90.60
34644;DHT22;26931;43.498;-1.506;2023-01-25T09:30:58;6.40;90.60
34644;DHT22;26931;43.498;-1.506;2023-01-25T09:33:28;6.50;90.60
34644;DHT22;26931;43.498;-1.506;2023-01-25T09:35:54;6.50;90.60
34644;DHT22;26931;43.498;-1.506;2023-01-25T09:38:20;6.50;90.60
34644;DHT22;26931;43.498;-1.506;2023-01-25T09:46:20;6.50;90.60
34644;DHT22;26931;43.498;-1.506;2023-01-25T09:48:52;6.60;90.60
34644;DHT22;26931;43.498;-1.506;2023-01-25T09:51:24;6.60;90.60
34644;DHT22;26931;43.498;-1.506;2023-01-25T09:53:54;6.60;90.60
34644;DHT22;26931;43.498;-1.506;2023-01-25T09:56:25;6.70;90.60
34644;DHT22;26931;43.498;-1.506;2023-01-25T09:58:52;6.70;90.60
34644;DHT22;26931;43.498;-1.506;2023-01-25T10:03:49;6.70;90.60
34644;DHT22;26931;43.498;-1.506;2023-01-25T10:06:16;6.80;90.50
34644;DHT22;26931;43.498;-1.506;2023-01-25T10:11:45;6.80;90.50
34644;DHT22;26931;43.498;-1.506;2023-01-25T10:14:18;6.80;90.50
34644;DHT22;26931;43.498;-1.506;2023-01-25T10:21:48;6.80;90.40
34644;DHT22;26931;43.498;-1.506;2023-01-25T10:26:50;6.90;90.40
34644;DHT22;26931;43.498;-1.506;2023-01-25T10:29:20;6.90;90.30
34644;DHT22;26931;43.498;-1.506;2023-01-25T10:34:20;7.00;90.30
34644;DHT22;26931;43.498;-1.506;2023-01-25T10:36:48;7.00;90.30
34644;DHT22;26931;43.498;-1.506;2023-01-25T10:39:15;7.00;90.20
34644;DHT22;26931;43.498;-1.506;2023-01-25T10:41:49;7.00;90.20
34644;DHT22;26931;43.498;-1.506;2023-01-25T10:44:15;7.10;90.30
34644;DHT22;26931;43.498;-1.506;2023-01-25T10:46:58;7.10;90.20
34644;DHT22;26931;43.498;-1.506;2023-01-25T10:52:10;7.10;90.20
34644;DHT22;26931;43.498;-1.506;2023-01-25T10:54:37;7.10;90.20
34644;DHT22;26931;43.498;-1.506;2023-01-25T10:57:04;7.10;90.10
34644;DHT22;26931;43.498;-1.506;2023-01-25T10:59:30;7.20;90.10
34644;DHT22;26931;43.498;-1.506;2023-01-25T11:02:01;7.20;90.10
34644;DHT22;26931;43.498;-1.506;2023-01-25T11:04:42;7.20;90.40
34644;DHT22;26931;43.498;-1.506;2023-01-25T11:07:24;7.30;90.00
34644;DHT22;26931;43.498;-1.506;2023-01-25T11:09:50;7.30;90.00
34644;DHT22;26931;43.498;-1.506;2023-01-25T11:12:17;7.30;89.90
34644;DHT22;26931;43.498;-1.506;2023-01-25T11:14:43;7.40;89.90
34644;DHT22;26931;43.498;-1.506;2023-01-25T11:17:19;7.30;89.70
34644;DHT22;26931;43.498;-1.506;2023-01-25T11:19:46;7.40;89.80
34644;DHT22;26931;43.498;-1.506;2023-01-25T11:24:43;7.50;89.70
34644;DHT22;26931;43.498;-1.506;2023-01-25T11:27:15;7.40;89.50
34644;DHT22;26931;43.498;-1.506;2023-01-25T11:29:41;7.50;89.50
34644;DHT22;26931;43.498;-1.506;2023-01-25T11:32:15;7.50;89.30
34644;DHT22;26931;43.498;-1.506;2023-01-25T11:34:40;7.60;89.50
34644;DHT22;26931;43.498;-1.506;2023-01-25T11:40:01;7.50;89.30
34644;DHT22;26931;43.498;-1.506;2023-01-25T11:45:19;7.40;89.10
34644;DHT22;26931;43.498;-1.506;2023-01-25T11:50:34;7.60;89.10
34644;DHT22;26931;43.498;-1.506;2023-01-25T11:53:16;7.60;89.10
34644;DHT22;26931;43.498;-1.506;2023-01-25T12:00:47;7.60;89.10
34644;DHT22;26931;43.498;-1.506;2023-01-25T12:06:05;7.60;89.20
34644;DHT22;26931;43.498;-1.506;2023-01-25T12:08:37;7.70;89.30
34644;DHT22;26931;43.498;-1.506;2023-01-25T12:11:10;7.70;89.40
34644;DHT22;26931;43.498;-1.506;2023-01-25T12:13:48;7.70;89.50
34644;DHT22;26931;43.498;-1.506;2023-01-25T12:18:55;7.70;89.30
34644;DHT22;26931;43.498;-1.506;2023-01-25T12:21:38;7.60;89.20
34644;DHT22;26931;43.498;-1.506;2023-01-25T12:34:13;7.70;89.30
34644;DHT22;26931;43.498;-1.506;2023-01-25T12:36:44;7.70;89.20
34644;DHT22;26931;43.498;-1.506;2023-01-25T12:41:56;7.60;89.20
34644;DHT22;26931;43.498;-1.506;2023-01-25T12:44:26;7.70;89.40
34644;DHT22;26931;43.498;-1.506;2023-01-25T12:47:01;7.70;89.40
34644;DHT22;26931;43.498;-1.506;2023-01-25T12:49:31;7.70;89.50
34644;DHT22;26931;43.498;-1.506;2023-01-25T12:51:58;7.80;89.50
34644;DHT22;26931;43.498;-1.506;2023-01-25T12:54:32;7.80;89.50
34644;DHT22;26931;43.498;-1.506;2023-01-25T13:02:21;7.90;89.60
34644;DHT22;26931;43.498;-1.506;2023-01-25T13:04:53;7.80;89.50
34644;DHT22;26931;43.498;-1.506;2023-01-25T13:07:26;7.80;89.50
34644;DHT22;26931;43.498;-1.506;2023-01-25T13:09:57;7.80;89.50
34644;DHT22;26931;43.498;-1.506;2023-01-25T13:12:24;7.80;89.40
34644;DHT22;26931;43.498;-1.506;2023-01-25T13:14:50;7.80;89.30
34644;DHT22;26931;43.498;-1.506;2023-01-25T13:19:54;7.80;89.10
34644;DHT22;26931;43.498;-1.506;2023-01-25T13:25:06;7.80;89.20
34644;DHT22;26931;43.498;-1.506;2023-01-25T13:27:32;7.90;89.20
34644;DHT22;26931;43.498;-1.506;2023-01-25T13:32:51;7.80;89.00
34644;DHT22;26931;43.498;-1.506;2023-01-25T13:37:58;7.80;88.90
34644;DHT22;26931;43.498;-1.506;2023-01-25T13:40:33;8.00;88.90
34644;DHT22;26931;43.498;-1.506;2023-01-25T13:45:28;7.80;88.80
34644;DHT22;26931;43.498;-1.506;2023-01-25T13:47:59;7.80;88.80
34644;DHT22;26931;43.498;-1.506;2023-01-25T13:50:26;7.90;88.90
34644;DHT22;26931;43.498;-1.506;2023-01-25T13:52:56;7.90;89.00
34644;DHT22;26931;43.498;-1.506;2023-01-25T13:55:22;7.90;89.20
34644;DHT22;26931;43.498;-1.506;2023-01-25T13:57:48;7.80;89.20
34644;DHT22;26931;43.498;-1.506;2023-01-25T14:00:15;7.90;89.10
34644;DHT22;26931;43.498;-1.506;2023-01-25T14:02:42;8.10;89.30
34644;DHT22;26931;43.498;-1.506;2023-01-25T14:05:19;7.90;89.20
34644;DHT22;26931;43.498;-1.506;2023-01-25T14:07:45;7.90;89.20
34644;DHT22;26931;43.498;-1.506;2023-01-25T14:10:13;8.00;89.20
34644;DHT22;26931;43.498;-1.506;2023-01-25T14:12:40;7.90;89.20
34644;DHT22;26931;43.498;-1.506;2023-01-25T14:15:15;7.90;89.20
34644;DHT22;26931;43.498;-1.506;2023-01-25T14:17:41;8.00;89.30
34644;DHT22;26931;43.498;-1.506;2023-01-25T14:20:27;8.00;89.20
34644;DHT22;26931;43.498;-1.506;2023-01-25T14:22:52;8.00;89.30
34644;DHT22;26931;43.498;-1.506;2023-01-25T14:25:19;8.10;89.20
34644;DHT22;26931;43.498;-1.506;2023-01-25T14:28:05;8.00;89.30
34644;DHT22;26931;43.498;-1.506;2023-01-25T14:30:32;8.20;89.40
34644;DHT22;26931;43.498;-1.506;2023-01-25T14:32:59;8.00;89.40
34644;DHT22;26931;43.498;-1.506;2023-01-25T14:37:56;8.00;89.40
34644;DHT22;26931;43.498;-1.506;2023-01-25T14:40:26;8.00;89.30
34644;DHT22;26931;43.498;-1.506;2023-01-25T14:42:53;8.00;89.60
34644;DHT22;26931;43.498;-1.506;2023-01-25T14:45:19;8.10;89.70
34644;DHT22;26931;43.498;-1.506;2023-01-25T14:47:48;8.10;89.80
34644;DHT22;26931;43.498;-1.506;2023-01-25T14:52:56;8.00;90.00
34644;DHT22;26931;43.498;-1.506;2023-01-25T14:55:21;8.00;90.10
34644;DHT22;26931;43.498;-1.506;2023-01-25T14:57:47;8.10;90.20
34644;DHT22;26931;43.498;-1.506;2023-01-25T15:02:47;8.00;90.50
34644;DHT22;26931;43.498;-1.506;2023-01-25T15:07:47;8.00;90.80
34644;DHT22;26931;43.498;-1.506;2023-01-25T15:10:17;8.00;90.90
34644;DHT22;26931;43.498;-1.506;2023-01-25T15:13:00;8.00;91.00
34644;DHT22;26931;43.498;-1.506;2023-01-25T15:15:27;7.90;91.10
34644;DHT22;26931;43.498;-1.506;2023-01-25T15:17:53;8.00;91.30
34644;DHT22;26931;43.498;-1.506;2023-01-25T15:20:31;8.00;91.40
34644;DHT22;26931;43.498;-1.506;2023-01-25T15:25:49;7.90;91.70
34644;DHT22;26931;43.498;-1.506;2023-01-25T15:28:15;7.90;91.80
34644;DHT22;26931;43.498;-1.506;2023-01-25T15:30:41;8.00;92.00
34644;DHT22;26931;43.498;-1.506;2023-01-25T15:33:08;7.90;92.00
34644;DHT22;26931;43.498;-1.506;2023-01-25T15:35:39;7.90;92.20
34644;DHT22;26931;43.498;-1.506;2023-01-25T15:38:05;7.90;92.20
34644;DHT22;26931;43.498;-1.506;2023-01-25T15:40:31;7.90;92.30
34644;DHT22;26931;43.498;-1.506;2023-01-25T15:42:56;7.90;92.40
34644;DHT22;26931;43.498;-1.506;2023-01-25T15:45:23;7.80;92.50
34644;DHT22;26931;43.498;-1.506;2023-01-25T15:47:49;7.90;92.60
34644;DHT22;26931;43.498;-1.506;2023-01-25T15:50:17;7.70;92.70
34644;DHT22;26931;43.498;-1.506;2023-01-25T15:52:43;7.90;92.90
34644;DHT22;26931;43.498;-1.506;2023-01-25T15:55:12;7.90;92.90
34644;DHT22;26931;43.498;-1.506;2023-01-25T15:57:38;7.90;93.00
34644;DHT22;26931;43.498;-1.506;2023-01-25T16:00:06;7.80;93.10
34644;DHT22;26931;43.498;-1.506;2023-01-25T16:02:31;7.80;93.10
34644;DHT22;26931;43.498;-1.506;2023-01-25T16:04:57;7.80;93.20
34644;DHT22;26931;43.498;-1.506;2023-01-25T16:07:25;7.80;93.20
34644;DHT22;26931;43.498;-1.506;2023-01-25T16:09:51;7.90;93.40
34644;DHT22;26931;43.498;-1.506;2023-01-25T16:12:17;7.80;93.40
34644;DHT22;26931;43.498;-1.506;2023-01-25T16:14:43;7.80;93.50
34644;DHT22;26931;43.498;-1.506;2023-01-25T16:17:17;7.80;93.60
34644;DHT22;26931;43.498;-1.506;2023-01-25T16:19:43;7.80;94.00
34644;DHT22;26931;43.498;-1.506;2023-01-25T16:22:12;7.80;93.70
34644;DHT22;26931;43.498;-1.506;2023-01-25T16:24:38;7.80;93.70
34644;DHT22;26931;43.498;-1.506;2023-01-25T16:27:04;7.80;93.70
34644;DHT22;26931;43.498;-1.506;2023-01-25T16:29:29;7.80;93.70
34644;DHT22;26931;43.498;-1.506;2023-01-25T16:31:55;7.80;93.70
34644;DHT22;26931;43.498;-1.506;2023-01-25T16:34:21;7.80;93.80
34644;DHT22;26931;43.498;-1.506;2023-01-25T16:36:46;7.80;93.80
34644;DHT22;26931;43.498;-1.506;2023-01-25T16:39:18;7.80;93.80
34644;DHT22;26931;43.498;-1.506;2023-01-25T16:41:44;7.90;93.80
34644;DHT22;26931;43.498;-1.506;2023-01-25T16:44:10;7.80;93.80
34644;DHT22;26931;43.498;-1.506;2023-01-25T16:46:39;7.80;93.80
34644;DHT22;26931;43.498;-1.506;2023-01-25T16:49:05;7.80;93.80
34644;DHT22;26931;43.498;-1.506;2023-01-25T16:51:33;7.80;93.90
34644;DHT22;26931;43.498;-1.506;2023-01-25T16:54:03;7.70;94.00
34644;DHT22;26931;43.498;-1.506;2023-01-25T16:56:29;7.80;94.20
34644;DHT22;26931;43.498;-1.506;2023-01-25T16:58:56;7.80;94.20
34644;DHT22;26931;43.498;-1.506;2023-01-25T17:01:22;7.70;94.30
34644;DHT22;26931;43.498;-1.506;2023-01-25T17:03:48;7.80;94.50
34644;DHT22;26931;43.498;-1.506;2023-01-25T17:06:18;7.80;94.50
34644;DHT22;26931;43.498;-1.506;2023-01-25T17:08:44;7.70;94.60
34644;DHT22;26931;43.498;-1.506;2023-01-25T17:11:10;7.80;94.70
34644;DHT22;26931;43.498;-1.506;2023-01-25T17:13:35;7.70;94.80